Overview Statistics Trail Chart Weather Telemetry Raw packets
 

This is the latest recevied weather packets stored in our database for station/object WX0ABE-13. If no packets are shown the sender has not sent any weather packets the latest 10 day(s).

<< 63 64 65 66 67 68 69 >>
Time Temp. Humidity Pressure Rain* Wind** Luminosity Snow
1787900572 21.11° C 68% 1021.3 hPa 0 mm - 0 W/m² -
1787900271 22.22° C 62% 1021.4 hPa 0 mm - 0 W/m² -
1787899966 22.78° C 59% 1021.3 hPa 0 mm - 0 W/m² -
1787899662 22.78° C 58% 1021.4 hPa 0 mm - 0 W/m² -
1787899357 22.78° C 57% 1021.3 hPa 0 mm - 0 W/m² -
1787899052 22.78° C 56% 1021.1 hPa 0 mm - 0 W/m² -
1787898747 22.78° C 57% 1020.9 hPa 0 mm - 0 W/m² -
1787898446 22.78° C 59% 1021.2 hPa 0 mm - 0 W/m² -
1787898145 22.78° C 59% 1020.9 hPa 0 mm - 0 W/m² -
1787897841 22.78° C 58% 1021.1 hPa 0 mm - 0 W/m² -
1787897541 22.78° C 59% 1020.7 hPa 0 mm - 0 W/m² -
1787897240 22.78° C 59% 1020.9 hPa 0 mm - 0 W/m² -
1787896935 22.78° C 59% 1021 hPa 0 mm - 0 W/m² -
1787896628 22.78° C 60% 1020.8 hPa 0 mm - 0 W/m² -
1787896325 21.67° C 62% 1020.5 hPa 0 mm - 0 W/m² -
1787896021 21.11° C 67% 1020.9 hPa 0 mm - 0 W/m² -
1787895720 21.11° C 69% 1020.7 hPa 0 mm - 0 W/m² -
1787895415 21.11° C 68% 1020.3 hPa 0 mm - 0 W/m² -
1787895111 21.67° C 67% 1020 hPa 0 mm - 0 W/m² -
1787894806 21.67° C 66% 1019.9 hPa 0 mm - 0 W/m² -
1787894502 21.67° C 66% 1019.9 hPa 0 mm - 0 W/m² -
1787894202 21.67° C 66% 1019.8 hPa 0 mm - 0 W/m² -
1787893897 21.67° C 65% 1020.1 hPa 0 mm - 0 W/m² -
1787893594 22.22° C 64% 1019.8 hPa 0 mm - 0 W/m² -
1787893289 22.78° C 60% 1019.9 hPa 0 mm - 0 W/m² -

* Rain latest hour (hover to see other rain measurements)
** Current wind speed in m/s (hover to see current wind gust speed)